createdAt,value
2022-09-21T00:08:20.841Z,6.9
2022-09-21T00:20:20.542Z,6.8
2022-09-21T00:32:20.649Z,6.8
2022-09-21T00:44:20.557Z,6.6
2022-09-21T00:56:20.722Z,6.0
2022-09-21T01:08:21.054Z,6.0
2022-09-21T01:20:21.042Z,6.0
2022-09-21T01:32:20.686Z,5.7
2022-09-21T01:44:21.071Z,5.3
2022-09-21T01:56:21.131Z,5.2
2022-09-21T02:08:20.737Z,4.8
2022-09-21T02:20:20.798Z,4.6
2022-09-21T02:32:21.504Z,4.2
2022-09-21T02:44:20.784Z,4.1
2022-09-21T02:56:21.141Z,4.1
2022-09-21T03:08:21.074Z,4.0
2022-09-21T03:20:20.865Z,4.0
2022-09-21T03:32:20.835Z,4.0
2022-09-21T03:44:20.871Z,4.1
2022-09-21T03:56:21.030Z,4.2
2022-09-21T04:08:21.058Z,4.0
2022-09-21T04:20:21.012Z,3.8
2022-09-21T04:32:21.267Z,3.7
2022-09-21T04:44:20.783Z,3.7
2022-09-21T04:56:20.798Z,3.7
2022-09-21T05:08:21.143Z,3.7
2022-09-21T05:20:20.813Z,3.5
2022-09-21T05:32:20.735Z,3.6
2022-09-21T05:44:21.128Z,3.7
2022-09-21T05:56:21.196Z,4.0
2022-09-21T06:08:20.724Z,4.1
2022-09-21T06:20:20.751Z,4.1
2022-09-21T06:32:21.316Z,4.5
2022-09-21T06:44:21.040Z,4.8
2022-09-21T06:56:21.187Z,5.0
2022-09-21T07:20:21.335Z,5.8
2022-09-21T07:32:21.190Z,6.0
2022-09-21T07:44:21.460Z,6.1
2022-09-21T07:56:21.170Z,7.1
2022-09-21T08:08:21.058Z,6.9
2022-09-21T08:20:21.043Z,7.2
2022-09-21T08:32:46.600Z,7.7
2022-09-21T08:44:20.651Z,8.3
2022-09-21T08:56:20.655Z,8.9
2022-09-21T09:08:21.047Z,9.5
2022-09-21T09:20:20.960Z,10.0
2022-09-21T09:32:20.837Z,10.9
2022-09-21T09:44:20.704Z,11.2
2022-09-21T09:56:20.569Z,11.3
2022-09-21T10:08:20.605Z,11.8
2022-09-21T10:20:20.625Z,11.9
2022-09-21T10:32:20.603Z,12.2
2022-09-21T10:44:20.616Z,11.9
2022-09-21T10:56:20.561Z,12.6
2022-09-21T11:08:20.958Z,13.0
2022-09-21T11:20:20.551Z,13.9
2022-09-21T11:32:20.720Z,14.5
2022-09-21T11:44:20.536Z,14.9
2022-09-21T11:56:20.828Z,15.1
2022-09-21T12:08:20.949Z,15.7
2022-09-21T12:20:20.860Z,15.5
2022-09-21T12:32:20.531Z,15.1
2022-09-21T12:44:20.653Z,15.5
2022-09-21T12:56:21.072Z,15.5
2022-09-21T13:08:20.627Z,15.6
2022-09-21T13:20:20.831Z,14.9
2022-09-21T13:32:20.753Z,15.5
2022-09-21T13:44:20.608Z,15.1
2022-09-21T13:56:20.659Z,15.2
2022-09-21T14:08:21.055Z,15.4
2022-09-21T14:20:21.012Z,15.0
2022-09-21T14:32:20.564Z,14.8
2022-09-21T14:44:20.790Z,14.5
2022-09-21T14:56:20.640Z,14.8
2022-09-21T15:08:20.585Z,15.0
2022-09-21T15:20:20.665Z,14.8
2022-09-21T15:32:20.986Z,14.8
2022-09-21T15:44:20.592Z,14.6
2022-09-21T15:56:20.602Z,14.6
2022-09-21T16:08:20.560Z,14.5
2022-09-21T16:20:21.005Z,14.4
2022-09-21T16:32:21.269Z,14.3
2022-09-21T16:44:20.862Z,14.1
2022-09-21T16:56:20.712Z,13.7
2022-09-21T17:08:21.048Z,13.4
2022-09-21T17:20:21.420Z,12.9
2022-09-21T17:32:20.877Z,12.1
2022-09-21T17:44:20.578Z,11.8
2022-09-21T17:56:20.715Z,11.0
2022-09-21T18:08:21.031Z,10.7
2022-09-21T18:20:21.239Z,10.4
2022-09-21T18:32:21.212Z,10.4
2022-09-21T18:44:20.776Z,10.8
2022-09-21T18:56:21.394Z,10.2
2022-09-21T19:08:20.759Z,10.0
2022-09-21T19:20:23.887Z,9.6
2022-09-21T19:32:20.849Z,9.3
2022-09-21T19:44:21.105Z,9.0
2022-09-21T19:56:20.730Z,8.9
2022-09-21T20:08:21.062Z,9.0
2022-09-21T20:20:21.253Z,8.8
2022-09-21T20:32:20.677Z,8.4
2022-09-21T20:44:21.243Z,8.2
2022-09-21T20:56:20.599Z,7.9
2022-09-21T21:08:20.672Z,7.7
2022-09-21T21:20:20.944Z,7.4
2022-09-21T21:32:20.744Z,7.0
2022-09-21T21:44:20.597Z,6.9
2022-09-21T21:56:20.899Z,6.6
2022-09-21T22:08:20.884Z,6.4
2022-09-21T22:20:20.700Z,6.4
2022-09-21T22:32:20.761Z,6.3
2022-09-21T22:44:20.697Z,6.4
2022-09-21T22:56:21.147Z,6.6
2022-09-21T23:08:21.176Z,6.3
2022-09-21T23:20:20.711Z,6.1
2022-09-21T23:32:20.610Z,5.8
2022-09-21T23:44:21.101Z,5.7
2022-09-21T23:56:20.708Z,5.6
